Time;durP1;ratioP1;P1;durP2;ratioP2;P2;SDS_P1;SDS_P2;PMS_P1;PMS_P2;Temp;Humidity;BMP_temperature;BMP_pressure;BME280_temperature;BME280_humidity;BME280_pressure;Samples;Min_cycle;Max_cycle;Signal;HPM_P1;HPM_P2
2021/01/08 00:02:13;;;;;;;3.87;2.90;;;;;;;0.88;99.94;98617.22;1769308;81;22227;-75
2021/01/08 00:04:42;;;;;;;3.35;2.65;;;;;;;0.88;99.93;98622.62;1769211;81;21069;-76
2021/01/08 00:07:13;;;;;;;4.28;2.80;;;;;;;0.90;100.00;98621.80;1769223;81;20951;-74
2021/01/08 00:09:41;;;;;;;4.05;2.70;;;;;;;0.90;100.00;98617.75;1769242;81;21153;-76
2021/01/08 00:12:09;;;;;;;5.75;3.00;;;;;;;0.90;99.72;98616.39;1769197;81;21058;-74
2021/01/08 00:14:37;;;;;;;4.35;2.87;;;;;;;0.91;99.79;98614.50;1769206;81;21223;-75
2021/01/08 00:17:06;;;;;;;4.87;3.10;;;;;;;0.91;99.96;98626.12;1769258;81;21161;-75
2021/01/08 00:19:34;;;;;;;4.53;3.10;;;;;;;0.91;99.78;98635.58;1769218;81;20999;-74
2021/01/08 00:22:04;;;;;;;3.90;2.60;;;;;;;0.91;99.64;98635.58;1769327;81;21560;-74
2021/01/08 00:24:32;;;;;;;5.17;3.42;;;;;;;0.92;99.59;98641.80;1769187;81;21047;-74
2021/01/08 00:27:03;;;;;;;5.22;2.62;;;;;;;0.93;99.63;98642.88;1769226;81;21373;-73
2021/01/08 00:29:31;;;;;;;3.60;3.00;;;;;;;0.93;99.29;98646.11;1769326;81;21050;-73
2021/01/08 00:32:00;;;;;;;4.25;3.30;;;;;;;0.93;99.31;98652.87;1769198;81;21101;-76
2021/01/08 00:34:28;;;;;;;4.78;3.25;;;;;;;0.94;99.59;98652.59;1767609;81;21070;-75
2021/01/08 00:36:56;;;;;;;4.92;3.30;;;;;;;0.93;99.51;98655.03;1765779;81;21554;-75
2021/01/08 00:39:25;;;;;;;6.67;3.40;;;;;;;0.92;99.44;98650.70;1765482;81;21390;-75
2021/01/08 00:41:53;;;;;;;4.92;3.35;;;;;;;0.91;99.59;98655.84;1765591;81;21002;-74
2021/01/08 00:44:21;;;;;;;4.50;3.30;;;;;;;0.91;99.81;98661.80;1765557;81;21062;-76
2021/01/08 00:46:50;;;;;;;5.22;3.52;;;;;;;0.90;99.79;98667.73;1765660;81;21086;-74
2021/01/08 00:49:20;;;;;;;4.17;3.20;;;;;;;0.91;99.82;98676.66;1765734;81;21497;-73
2021/01/08 00:51:48;;;;;;;5.25;3.50;;;;;;;0.91;99.75;98671.25;1765684;81;21440;-73
2021/01/08 00:54:18;;;;;;;4.37;3.27;;;;;;;0.93;99.86;98669.08;1765594;81;21213;-75
2021/01/08 00:56:48;;;;;;;4.05;3.02;;;;;;;0.94;99.75;98674.76;1765719;81;21102;-74
2021/01/08 00:59:18;;;;;;;4.60;3.20;;;;;;;0.94;99.75;98680.97;1765572;81;20947;-74
2021/01/08 01:01:45;;;;;;;5.15;3.50;;;;;;;0.95;99.80;98678.54;1765669;81;21105;-74
2021/01/08 01:04:13;;;;;;;3.42;2.65;;;;;;;0.96;99.85;98684.21;1765625;81;21172;-74
2021/01/08 01:06:41;;;;;;;5.12;3.30;;;;;;;0.95;99.62;98690.70;1765632;81;20951;-74
2021/01/08 01:09:09;;;;;;;4.92;3.40;;;;;;;0.96;99.38;98680.70;1765670;81;21074;-73
2021/01/08 01:11:38;;;;;;;6.75;3.52;;;;;;;0.96;99.45;98690.16;1765661;81;21090;-73
2021/01/08 01:14:06;;;;;;;5.03;2.98;;;;;;;0.96;99.45;98686.91;1765651;81;21058;-75
2021/01/08 01:16:34;;;;;;;5.20;3.77;;;;;;;0.95;99.37;98680.43;1765723;81;21554;-75
2021/01/08 01:19:02;;;;;;;5.30;3.33;;;;;;;0.95;99.34;98693.94;1765571;81;21030;-75
2021/01/08 01:21:30;;;;;;;5.58;3.45;;;;;;;0.95;99.44;98688.00;1765626;81;21138;-74
2021/01/08 01:23:58;;;;;;;4.33;3.30;;;;;;;0.96;99.42;98679.34;1765644;81;20944;-74
2021/01/08 01:26:26;;;;;;;4.97;3.50;;;;;;;0.95;99.37;98684.48;1780904;79;21076;-74
2021/01/08 01:28:56;;;;;;;5.58;3.55;;;;;;;0.94;99.24;98683.67;1797237;79;22267;-74
2021/01/08 01:31:24;;;;;;;4.72;3.17;;;;;;;0.94;99.22;98683.67;1797033;79;21007;-74
2021/01/08 01:33:56;;;;;;;;;;;;;;;0.94;99.15;98695.02;1798112;79;21469;-74
2021/01/08 01:36:23;;;;;;;5.72;3.37;;;;;;;0.93;98.98;98683.41;1771393;81;20128;-74
2021/01/08 01:38:51;;;;;;;4.55;3.20;;;;;;;0.92;99.19;98689.09;1767032;81;21223;-73
2021/01/08 01:41:19;;;;;;;4.33;2.75;;;;;;;0.93;99.28;98692.05;1740770;82;23442;-74
2021/01/08 01:43:50;;;;;;;4.87;2.90;;;;;;;0.92;99.22;98678.28;1740728;82;21540;-74
2021/01/08 01:46:21;;;;;;;3.85;3.10;;;;;;;0.92;99.12;98701.24;1740777;82;21076;-74
2021/01/08 01:48:52;;;;;;;5.62;2.77;;;;;;;0.91;99.08;98701.78;1740793;82;20961;-75
2021/01/08 01:51:21;;;;;;;4.55;2.80;;;;;;;0.90;99.01;98697.46;1740913;82;21508;-73
2021/01/08 01:53:49;;;;;;;4.67;2.80;;;;;;;0.89;99.00;98703.95;1740813;82;21211;-74
2021/01/08 01:56:17;;;;;;;5.05;3.17;;;;;;;0.90;98.96;98714.22;1740872;82;21100;-75
2021/01/08 01:58:44;;;;;;;5.10;3.62;;;;;;;0.89;98.70;98715.30;1740929;82;21159;-73
2021/01/08 02:01:12;;;;;;;5.87;3.83;;;;;;;0.89;98.75;98716.66;1740876;82;21562;-75
2021/01/08 02:03:53;;;;;;;6.10;3.70;;;;;;;0.89;98.57;98710.70;1740961;82;21533;-73
2021/01/08 02:06:25;;;;;;;7.25;4.05;;;;;;;0.90;98.67;98720.97;1741051;82;22304;-75
2021/01/08 02:08:57;;;;;;;5.78;3.90;;;;;;;0.90;98.39;98723.14;1756035;81;21567;-74
2021/01/08 02:11:28;;;;;;;6.58;4.10;;;;;;;0.90;98.24;98716.92;1771227;81;21503;-74
2021/01/08 02:14:09;;;;;;;6.60;3.75;;;;;;;0.90;98.10;98722.33;1771304;81;21547;-74
2021/01/08 02:16:38;;;;;;;8.43;4.25;;;;;;;0.91;98.08;98723.41;1771356;81;21501;-75
2021/01/08 02:19:11;;;;;;;7.40;4.67;;;;;;;0.91;98.03;98723.41;1771325;81;22282;-73
2021/01/08 02:21:49;;;;;;;8.38;5.12;;;;;;;0.93;98.01;98727.19;1771176;81;20965;-73
2021/01/08 02:24:41;;;;;;;6.97;4.42;;;;;;;0.93;97.95;98729.89;1771001;81;21076;-74
2021/01/08 02:27:08;;;;;;;7.78;4.67;;;;;;;0.93;97.52;98728.54;1771175;81;21068;-75
2021/01/08 02:29:37;;;;;;;9.15;4.80;;;;;;;0.93;97.41;98732.59;1771190;81;21048;-74
2021/01/08 02:32:06;;;;;;;8.78;4.85;;;;;;;0.94;97.75;98731.51;1771497;81;21261;-74
2021/01/08 02:34:33;;;;;;;8.55;4.85;;;;;;;0.95;97.00;98741.23;1764264;79;21568;-74
2021/01/08 02:37:02;;;;;;;9.50;5.00;;;;;;;0.94;96.76;98743.13;1784156;80;21010;-74
2021/01/08 02:39:31;;;;;;;9.33;5.33;;;;;;;0.92;96.54;98743.94;1770980;79;20974;-74
2021/01/08 02:41:59;;;;;;;9.38;5.87;;;;;;;0.93;96.82;98752.31;1765777;81;21069;-73
2021/01/08 02:44:27;;;;;;;10.40;5.87;;;;;;;0.94;96.88;98751.78;1758568;81;21178;-75
2021/01/08 02:46:55;;;;;;;8.80;5.62;;;;;;;0.94;96.84;98751.23;1765696;81;20956;-74
2021/01/08 02:49:23;;;;;;;13.90;7.45;;;;;;;0.94;96.93;98753.94;1771904;79;20950;-74
2021/01/08 02:51:51;;;;;;;11.90;7.10;;;;;;;0.94;97.01;98758.53;1789075;79;20973;-75
2021/01/08 02:54:19;;;;;;;15.05;8.28;;;;;;;0.92;97.07;98753.40;1797214;79;21056;-74
2021/01/08 02:56:50;;;;;;;12.90;7.95;;;;;;;0.91;97.17;98758.53;1760048;80;21196;-73
2021/01/08 02:59:17;;;;;;;15.08;8.65;;;;;;;0.92;97.33;98766.91;1822586;78;20942;-74
2021/01/08 03:01:45;;;;;;;17.95;9.60;;;;;;;0.90;97.35;98766.91;1788505;80;20989;-73
2021/01/08 03:04:13;;;;;;;14.95;7.47;;;;;;;0.89;97.45;98768.00;1790202;80;21555;-73
2021/01/08 03:06:44;;;;;;;16.23;9.25;;;;;;;0.89;97.42;98768.00;1790239;80;21051;-73
2021/01/08 03:09:11;;;;;;;13.48;8.08;;;;;;;0.89;97.55;98776.91;1790182;80;21402;-74
2021/01/08 03:11:39;;;;;;;15.50;8.88;;;;;;;0.89;97.41;98772.05;1790183;80;20998;-76
2021/01/08 03:14:07;;;;;;;16.15;8.65;;;;;;;0.88;97.17;98775.29;1790148;80;21028;-76
2021/01/08 03:16:37;;;;;;;16.50;8.60;;;;;;;0.90;97.21;98780.42;1791666;78;21045;-75
2021/01/08 03:19:04;;;;;;;15.75;8.65;;;;;;;0.91;96.77;98775.29;1787133;80;21128;-74
2021/01/08 03:21:32;;;;;;;16.77;8.53;;;;;;;0.90;96.58;98774.48;1804534;78;21365;-74
2021/01/08 03:24:01;;;;;;;15.03;8.65;;;;;;;0.89;95.97;98778.27;1770801;81;21100;-73
2021/01/08 03:26:31;;;;;;;14.73;8.48;;;;;;;0.89;95.70;98783.66;1770894;81;20949;-74
2021/01/08 03:28:59;;;;;;;17.27;9.43;;;;;;;0.90;95.63;98787.18;1770898;81;22048;-74
2021/01/08 03:31:26;;;;;;;15.40;8.80;;;;;;;0.89;95.20;98785.56;1770861;81;21084;-74
2021/01/08 03:33:54;;;;;;;14.70;8.03;;;;;;;0.90;95.18;98791.23;1770886;81;21250;-75
2021/01/08 03:36:22;;;;;;;17.45;9.13;;;;;;;0.91;94.93;98784.75;1770695;81;21588;-74
2021/01/08 03:38:50;;;;;;;16.82;8.95;;;;;;;0.91;94.88;98794.20;1770839;79;21072;-74
2021/01/08 03:41:18;;;;;;;17.00;8.95;;;;;;;0.90;94.82;98794.75;1771184;80;21065;-74
2021/01/08 03:43:45;;;;;;;15.72;8.78;;;;;;;0.92;94.89;98801.23;1757350;81;21579;-72
2021/01/08 03:46:13;;;;;;;16.95;8.68;;;;;;;0.91;94.73;98812.58;1790191;80;21206;-74
2021/01/08 03:48:42;;;;;;;18.98;10.18;;;;;;;0.92;94.72;98807.98;1790139;80;21076;-75
2021/01/08 03:51:10;;;;;;;18.00;10.10;;;;;;;0.90;94.53;98820.42;1758993;81;21560;-75
2021/01/08 03:53:37;;;;;;;20.15;11.45;;;;;;;0.89;94.64;98816.09;1790124;80;20954;-74
2021/01/08 03:56:05;;;;;;;21.68;11.78;;;;;;;0.88;94.72;98817.72;1790184;80;21136;-75
2021/01/08 03:58:33;;;;;;;19.07;11.00;;;;;;;0.88;94.63;98816.36;1758937;81;21350;-74
2021/01/08 04:01:00;;;;;;;21.70;11.40;;;;;;;0.87;94.58;98817.45;1790097;80;20945;-75
2021/01/08 04:03:28;;;;;;;21.95;11.48;;;;;;;0.86;94.83;98819.34;1790142;80;21070;-73
2021/01/08 04:05:56;;;;;;;19.60;11.08;;;;;;;0.85;94.78;98828.52;1758903;81;20965;-74
2021/01/08 04:08:23;;;;;;;21.42;10.85;;;;;;;0.84;94.81;98824.20;1790150;80;21103;-74
2021/01/08 04:10:51;;;;;;;23.85;11.70;;;;;;;0.84;94.88;98828.80;1790194;80;21551;-76
2021/01/08 04:13:19;;;;;;;24.57;12.58;;;;;;;0.86;95.13;98832.03;1758863;81;21499;-75
2021/01/08 04:15:49;;;;;;;21.60;10.98;;;;;;;0.85;95.04;98827.71;1790011;80;20921;-73
2021/01/08 04:18:17;;;;;;;22.25;12.20;;;;;;;0.84;94.90;98838.25;1790240;80;21482;-73
2021/01/08 04:20:44;;;;;;;23.67;11.10;;;;;;;0.83;94.83;98836.63;1758853;81;20989;-76
2021/01/08 04:23:13;;;;;;;28.77;14.28;;;;;;;0.84;94.77;98839.60;1790129;80;21342;-75
2021/01/08 04:25:41;;;;;;;29.20;14.87;;;;;;;0.85;94.75;98842.58;1758833;81;20953;-74
2021/01/08 04:28:08;;;;;;;28.25;15.25;;;;;;;0.83;94.75;98832.03;1790246;80;21072;-77
2021/01/08 04:30:36;;;;;;;33.08;16.27;;;;;;;0.83;94.67;98846.08;1758860;81;21016;-76
2021/01/08 04:33:04;;;;;;;31.12;14.95;;;;;;;0.82;94.62;98833.66;1790154;80;21531;-75
2021/01/08 04:35:32;;;;;;;39.08;18.82;;;;;;;0.81;94.75;98833.38;1790003;80;21199;-76
2021/01/08 04:37:59;;;;;;;42.40;20.32;;;;;;;0.79;94.82;98832.84;1758824;81;21513;-73
2021/01/08 04:40:27;;;;;;;44.73;19.35;;;;;;;0.78;95.01;98834.73;1786076;80;20933;-74
2021/01/08 04:42:55;;;;;;;47.60;20.62;;;;;;;0.79;94.93;98840.95;1750278;80;21141;-76
2021/01/08 04:45:22;;;;;;;47.00;20.85;;;;;;;0.75;94.74;98837.97;1778882;80;21286;-74
2021/01/08 04:47:50;;;;;;;39.98;19.75;;;;;;;0.75;94.73;98838.52;1793794;80;21418;-75
2021/01/08 04:50:18;;;;;;;42.30;19.85;;;;;;;0.74;95.01;98847.70;1772421;79;20986;-75
2021/01/08 04:52:46;;;;;;;43.60;20.17;;;;;;;0.72;94.84;98844.45;1791272;79;21512;-75
2021/01/08 04:55:14;;;;;;;39.60;19.82;;;;;;;0.71;94.66;98856.34;1822443;78;21009;-76
2021/01/08 04:57:42;;;;;;;41.83;18.02;;;;;;;0.69;94.40;98847.15;1790755;78;21576;-77
2021/01/08 05:00:13;;;;;;;42.30;19.17;;;;;;;0.66;94.28;98847.14;1727624;80;22298;-81
2021/01/08 05:02:41;;;;;;;39.70;19.40;;;;;;;0.63;94.14;98849.03;1817358;79;21453;-83
2021/01/08 05:05:10;;;;;;;39.53;20.20;;;;;;;0.63;94.14;98850.92;1788237;79;20934;-79
2021/01/08 05:07:38;;;;;;;40.33;18.98;;;;;;;0.63;94.17;98859.02;1808201;79;20942;-80
2021/01/08 05:10:09;;;;;;;43.02;19.98;;;;;;;0.63;94.26;98865.78;1795200;80;21120;-82
2021/01/08 05:12:43;;;;;;;43.40;19.05;;;;;;;0.64;94.46;98874.96;1764352;80;21592;-79
2021/01/08 05:15:12;;;;;;;45.08;19.40;;;;;;;0.64;94.23;98865.51;1795122;80;20930;-79
2021/01/08 05:17:42;;;;;;;39.00;18.67;;;;;;;0.62;94.00;98866.85;1795539;79;20982;-77
2021/01/08 05:20:11;;;;;;;41.70;20.00;;;;;;;0.60;94.00;98875.77;1770812;79;20942;-79
2021/01/08 05:22:39;;;;;;;42.88;18.95;;;;;;;0.60;94.24;98888.73;1765771;81;21465;-79
2021/01/08 05:25:11;;;;;;;39.98;19.35;;;;;;;0.59;94.23;98872.79;1765632;81;21255;-78
2021/01/08 05:27:38;;;;;;;41.70;19.35;;;;;;;0.59;94.05;98878.19;1765784;81;20943;-75
2021/01/08 05:30:23;;;;;;;36.60;17.12;;;;;;;0.58;93.96;98885.48;1765673;81;20891;-78
2021/01/08 05:33:01;;;;;;;41.55;18.27;;;;;;;0.56;93.75;98884.97;1765681;81;21053;-80
2021/01/08 05:35:32;;;;;;;36.73;17.32;;;;;;;0.56;93.57;98884.16;1767052;79;21178;-77
2021/01/08 05:38:05;;;;;;;37.50;16.82;;;;;;;0.54;93.24;98884.42;1774530;80;21213;-78
2021/01/08 05:40:34;;;;;;;31.90;16.93;;;;;;;0.50;93.22;98881.98;1771771;80;21130;-81
2021/01/08 05:43:02;;;;;;;29.70;14.68;;;;;;;0.52;93.28;98889.28;1771353;81;21174;-80
2021/01/08 05:45:30;;;;;;;32.78;15.88;;;;;;;0.51;93.25;98890.36;1771375;81;21082;-80
2021/01/08 05:48:00;;;;;;;31.97;16.60;;;;;;;0.52;93.15;98890.63;1771485;81;21570;-77
2021/01/08 05:50:28;;;;;;;32.88;15.78;;;;;;;0.53;93.27;98896.30;1771481;81;22236;-80
2021/01/08 05:53:09;;;;;;;33.60;16.57;;;;;;;0.52;92.88;98900.08;1771281;81;21011;-76
2021/01/08 05:55:40;;;;;;;33.67;16.27;;;;;;;0.51;92.66;98899.81;1771752;81;21118;-82
2021/01/08 05:58:21;;;;;;;31.10;15.78;;;;;;;0.50;92.69;98898.19;1771345;81;21066;-77
2021/01/08 06:01:02;;;;;;;30.75;15.45;;;;;;;0.50;92.56;98906.28;1771357;81;20932;-78
2021/01/08 06:03:30;;;;;;;31.48;16.07;;;;;;;0.50;92.41;98907.64;1771475;81;21383;-78
2021/01/08 06:06:02;;;;;;;30.27;15.25;;;;;;;0.50;92.37;98910.87;1771364;81;20932;-78
2021/01/08 06:08:53;;;;;;;28.10;13.88;;;;;;;0.49;92.22;98907.36;1771570;81;21483;-78
2021/01/08 06:11:29;;;;;;;32.93;16.27;;;;;;;0.47;92.04;98924.38;1771596;81;21447;-74
2021/01/08 06:14:01;;;;;;;34.43;17.48;;;;;;;0.47;92.43;98936.52;1771459;81;21546;-78
2021/01/08 06:16:37;;;;;;;32.42;16.60;;;;;;;0.46;92.45;98934.09;1771382;81;21206;-79
2021/01/08 06:19:05;;;;;;;35.70;17.05;;;;;;;0.46;92.41;98938.95;1771313;81;21150;-76
2021/01/08 06:21:45;;;;;;;35.40;14.90;;;;;;;0.45;92.51;98933.27;1771354;80;21023;-78
2021/01/08 06:24:23;;;;;;;35.83;17.48;;;;;;;0.45;92.62;98934.63;1771368;81;21163;-78
2021/01/08 06:26:51;;;;;;;33.45;17.62;;;;;;;0.43;92.12;98947.58;1771347;81;21078;-79
2021/01/08 06:29:23;;;;;;;30.02;14.87;;;;;;;0.44;92.22;98956.49;1771301;81;21428;-75
2021/01/08 06:31:52;;;;;;;35.05;17.70;;;;;;;0.44;92.32;98964.05;1771469;81;20905;-77
2021/01/08 06:34:23;;;;;;;38.78;18.92;;;;;;;0.44;92.35;98960.00;1771338;81;20936;-81
2021/01/08 06:37:09;;;;;;;34.10;16.10;;;;;;;0.45;92.21;98973.78;1787871;79;21715;-76
2021/01/08 06:39:39;;;;;;;46.08;21.60;;;;;;;0.45;91.84;98967.56;1782563;79;20891;-77
2021/01/08 06:42:07;;;;;;;41.15;20.05;;;;;;;0.44;91.99;98972.70;1765813;81;21377;-84
2021/01/08 06:44:35;;;;;;;48.92;22.55;;;;;;;0.43;92.46;98985.92;1765765;81;20986;-78
2021/01/08 06:47:05;;;;;;;46.28;22.30;;;;;;;0.45;92.42;98984.58;1765754;81;20985;-78
2021/01/08 06:49:36;;;;;;;41.98;21.40;;;;;;;0.45;92.14;98987.28;1765741;81;21179;-79
2021/01/08 06:52:04;;;;;;;49.45;23.27;;;;;;;0.45;92.10;98987.28;1744867;81;21524;-78
2021/01/08 06:54:31;;;;;;;43.08;21.62;;;;;;;0.46;92.21;98988.09;1765719;80;21383;-81
2021/01/08 06:57:00;;;;;;;50.23;24.27;;;;;;;0.46;91.95;98997.01;1765732;81;21489;-68
2021/01/08 06:59:33;;;;;;;38.30;19.85;;;;;;;0.46;91.71;98987.56;1765782;81;21069;-75
2021/01/08 07:04:53;;;;;;;38.13;17.87;;;;;;;0.48;91.09;98974.61;1890092;75;22842;-75
2021/01/08 07:07:24;;;;;;;37.33;18.85;;;;;;;0.44;91.06;98984.84;1855953;77;20920;-76
2021/01/08 07:09:54;;;;;;;37.25;18.50;;;;;;;0.43;91.18;98982.69;1855929;76;21349;-75
2021/01/08 07:12:23;;;;;;;34.30;18.17;;;;;;;0.42;90.84;98982.41;1860815;77;20962;-77
2021/01/08 07:14:53;;;;;;;36.10;18.17;;;;;;;0.42;90.75;98989.16;1861073;77;20927;-68
2021/01/08 07:17:30;;;;;;;40.63;18.87;;;;;;;0.42;90.63;98994.56;1860999;77;21081;-68
2021/01/08 07:20:05;;;;;;;37.35;17.45;;;;;;;0.43;90.55;98994.84;1850351;76;20967;-67
2021/01/08 07:22:40;;;;;;;34.30;17.98;;;;;;;0.45;90.21;99000.78;1830306;77;22238;-69
2021/01/08 07:25:13;;;;;;;36.88;19.02;;;;;;;0.47;90.65;99005.92;1817549;77;20978;-75
2021/01/08 07:27:43;;;;;;;37.75;18.42;;;;;;;0.52;90.31;99010.00;1849511;77;20986;-69
2021/01/08 07:30:13;;;;;;;34.03;16.27;;;;;;;0.55;89.94;99008.94;1821742;77;21107;-70
2021/01/08 07:32:51;;;;;;;37.50;19.45;;;;;;;0.55;89.53;99008.94;1849589;77;21109;-69
2021/01/08 07:35:28;;;;;;;38.35;19.45;;;;;;;0.56;88.96;99009.21;1849706;77;22273;-66
2021/01/08 07:38:04;;;;;;;32.88;17.32;;;;;;;0.56;89.09;99010.56;1849439;77;21120;-68
2021/01/08 07:40:36;;;;;;;33.45;18.02;;;;;;;0.57;88.63;99011.38;1849624;77;21589;-71
2021/01/08 07:43:06;;;;;;;36.53;18.10;;;;;;;0.61;88.84;99014.61;1849701;77;21570;-72
2021/01/08 07:45:54;;;;;;;36.13;17.48;;;;;;;0.66;88.35;99010.58;1851517;76;21563;-75
2021/01/08 07:48:40;;;;;;;37.03;16.65;;;;;;;0.69;88.03;99002.48;1850667;77;22221;-72
2021/01/08 07:51:10;;;;;;;31.07;15.88;;;;;;;0.73;87.39;99008.98;1849065;77;20981;-71
2021/01/08 07:53:46;;;;;;;34.00;16.32;;;;;;;0.75;86.80;99006.02;1821955;77;21552;-70
2021/01/08 07:56:25;;;;;;;28.25;15.43;;;;;;;0.77;86.57;99013.32;1849585;77;21125;-71
2021/01/08 07:59:04;;;;;;;30.55;15.93;;;;;;;0.92;86.57;99018.78;1849553;77;21139;-71
2021/01/08 08:01:34;;;;;;;27.95;15.23;;;;;;;1.18;85.52;99021.80;1849556;77;21198;-72
2021/01/08 08:04:07;;;;;;;27.05;14.13;;;;;;;1.53;84.70;99029.16;1848054;77;20970;-72
2021/01/08 08:06:36;;;;;;;25.52;13.90;;;;;;;1.78;83.14;99026.17;1847521;77;21533;-72
2021/01/08 08:09:06;;;;;;;27.77;15.03;;;;;;;1.94;82.32;99021.84;1847154;77;21152;-72
2021/01/08 08:11:37;;;;;;;25.35;13.22;;;;;;;2.08;81.08;99031.58;1826288;76;21151;-71
2021/01/08 08:14:06;;;;;;;25.37;13.05;;;;;;;2.16;79.49;99030.22;1854665;77;21196;-70
2021/01/08 08:16:38;;;;;;;24.57;13.75;;;;;;;2.23;79.85;99039.69;1846677;77;21021;-72
2021/01/08 08:19:08;;;;;;;24.23;13.40;;;;;;;2.34;78.39;99037.73;1846600;77;21037;-73
2021/01/08 08:21:47;;;;;;;28.07;14.07;;;;;;;2.45;77.83;99041.23;1846571;77;21121;-71
2021/01/08 08:24:17;;;;;;;29.18;14.95;;;;;;;2.57;77.51;99037.69;1846672;77;21128;-71
2021/01/08 08:26:46;;;;;;;25.25;13.62;;;;;;;2.66;76.95;99038.73;1845910;77;21568;-74
2021/01/08 08:29:16;;;;;;;22.50;11.43;;;;;;;2.60;76.81;99053.39;1846486;77;21014;-72
2021/01/08 08:31:50;;;;;;;25.27;13.55;;;;;;;2.42;76.09;99048.56;1846645;77;21120;-72
2021/01/08 08:34:30;;;;;;;25.48;13.45;;;;;;;2.21;76.89;99054.04;1846524;77;21085;-70
2021/01/08 08:37:08;;;;;;;25.60;13.58;;;;;;;2.10;78.04;99063.25;1846684;77;21088;-70
2021/01/08 08:39:35;;;;;;;23.18;12.93;;;;;;;1.98;78.02;99058.11;1846559;77;21192;-69
2021/01/08 08:42:03;;;;;;;25.52;13.60;;;;;;;1.85;78.05;99057.30;1846484;77;21003;-70
2021/01/08 08:44:42;;;;;;;20.85;11.70;;;;;;;1.73;79.12;99066.25;1855877;76;21160;-72
2021/01/08 08:47:11;;;;;;;27.40;14.13;;;;;;;1.64;79.27;99068.68;1779621;80;21157;-71
2021/01/08 08:49:40;;;;;;;24.82;13.13;;;;;;;1.59;80.18;99081.39;1777426;80;20994;-71
2021/01/08 08:52:08;;;;;;;26.62;14.73;;;;;;;1.54;80.13;99075.42;1777482;80;21390;-71
2021/01/08 08:54:38;;;;;;;22.05;13.03;;;;;;;1.51;80.58;99084.08;1777294;80;21069;-76
2021/01/08 08:57:08;;;;;;;23.20;13.05;;;;;;;1.48;81.02;99081.91;1777378;80;21049;-75
2021/01/08 08:59:45;;;;;;;27.73;13.75;;;;;;;1.49;80.28;99084.07;1777387;80;21132;-75
2021/01/08 09:02:27;;;;;;;25.90;13.90;;;;;;;1.45;79.59;99085.14;1777466;80;21165;-75
2021/01/08 09:05:00;;;;;;;21.60;12.33;;;;;;;1.43;80.15;99087.30;1756210;80;21214;-73
2021/01/08 09:07:50;;;;;;;22.85;13.05;;;;;;;1.44;80.66;99079.47;1780055;80;21020;-71
2021/01/08 09:10:24;;;;;;;23.85;11.08;;;;;;;1.48;80.90;99083.27;1780390;80;21070;-71
2021/01/08 09:13:13;;;;;;;21.57;11.97;;;;;;;1.48;80.23;99082.45;1780786;80;20921;-74
2021/01/08 09:16:14;;;;;;;23.95;12.63;;;;;;;1.56;80.10;99073.81;1784441;80;20911;-73
2021/01/08 09:18:50;;;;;;;30.95;14.98;;;;;;;1.61;79.37;99076.52;1793575;80;21198;-71
2021/01/08 09:21:50;;;;;;;22.80;11.65;;;;;;;1.60;79.36;99070.84;1793532;80;21033;-71
2021/01/08 09:24:31;;;;;;;41.25;16.48;;;;;;;1.60;78.50;99070.84;1793497;80;21108;-72
2021/01/08 09:27:01;;;;;;;21.90;12.30;;;;;;;1.56;78.37;99067.86;1793610;78;20938;-73
2021/01/08 09:29:32;;;;;;;26.33;14.35;;;;;;;1.54;78.55;99063.80;1793685;80;21469;-71
2021/01/08 09:32:01;;;;;;;31.75;12.93;;;;;;;1.52;78.51;99071.36;1762251;81;21260;-72
2021/01/08 09:34:30;;;;;;;24.95;11.55;;;;;;;1.50;78.85;99066.22;1793483;79;21500;-72
2021/01/08 09:37:13;;;;;;;20.08;10.28;;;;;;;1.48;78.16;99067.57;1793548;80;20966;-72
2021/01/08 09:39:43;;;;;;;35.10;15.25;;;;;;;1.42;77.90;99061.34;1762280;81;20934;-71
2021/01/08 09:42:12;;;;;;;24.30;12.10;;;;;;;1.34;78.60;99064.56;1793570;80;20938;-70
2021/01/08 09:44:41;;;;;;;24.18;13.72;;;;;;;1.30;79.49;99073.75;1761833;81;21524;-70
2021/01/08 09:47:10;;;;;;;31.00;15.60;;;;;;;1.28;79.81;99069.69;1788842;80;20946;-71
2021/01/08 09:49:48;;;;;;;18.95;10.78;;;;;;;1.26;79.56;99068.59;1780870;80;21450;-70
2021/01/08 09:52:16;;;;;;;31.77;15.30;;;;;;;1.25;79.13;99072.38;1758665;80;21163;-70
2021/01/08 09:54:51;;;;;;;28.02;13.60;;;;;;;1.24;79.64;99066.70;1787894;80;21009;-71
2021/01/08 09:57:28;;;;;;;30.82;13.55;;;;;;;1.26;79.74;99068.59;1791356;79;21206;-71
2021/01/08 09:59:58;;;;;;;24.63;13.13;;;;;;;1.28;79.47;99062.39;1790254;79;21151;-71
2021/01/08 10:02:42;;;;;;;40.10;17.10;;;;;;;1.31;79.71;99067.26;1790612;80;21207;-72
2021/01/08 10:05:26;;;;;;;36.23;15.10;;;;;;;1.35;80.09;99066.73;1789850;79;21049;-73
2021/01/08 10:07:55;;;;;;;32.98;16.23;;;;;;;1.36;79.77;99066.46;1825394;78;21042;-71
2021/01/08 10:10:31;;;;;;;27.48;13.45;;;;;;;1.39;80.30;99048.34;1806100;79;21183;-69
2021/01/08 10:12:59;;;;;;;20.48;11.48;;;;;;;1.42;79.78;99057.28;1825416;78;20993;-69
2021/01/08 10:15:43;;;;;;;29.92;15.48;;;;;;;1.44;78.39;99052.95;1806332;79;21041;-71
2021/01/08 10:18:22;;;;;;;20.80;12.13;;;;;;;1.41;78.10;99049.44;1825243;78;21556;-70
2021/01/08 10:21:04;;;;;;;23.42;13.18;;;;;;;1.39;77.44;99054.30;1806394;79;21143;-70
2021/01/08 10:23:42;;;;;;;21.60;11.45;;;;;;;1.38;78.03;99060.78;1825393;78;23513;-71
2021/01/08 10:26:15;;;;;;;22.27;11.63;;;;;;;1.40;77.10;99057.27;1806304;78;21059;-72
2021/01/08 10:28:51;;;;;;;21.07;11.28;;;;;;;1.39;77.27;99057.81;1825421;78;21586;-72
2021/01/08 10:31:20;;;;;;;20.75;10.65;;;;;;;1.42;76.75;99057.28;1806231;79;21156;-70
2021/01/08 10:33:48;;;;;;;20.48;10.55;;;;;;;1.38;75.28;99052.13;1825340;78;21164;-70
2021/01/08 10:36:16;;;;;;;26.30;13.85;;;;;;;1.33;76.16;99058.34;1806391;79;21262;-72
2021/01/08 10:38:44;;;;;;;28.30;13.45;;;;;;;1.31;76.73;99059.15;1810920;78;21576;-72
2021/01/08 10:41:16;;;;;;;20.55;12.35;;;;;;;1.29;77.01;99066.72;1779712;80;20942;-72
2021/01/08 10:43:45;;;;;;;26.52;12.40;;;;;;;1.27;77.13;99056.70;1811840;79;21131;-71
2021/01/08 10:46:15;;;;;;;18.57;10.90;;;;;;;1.25;77.99;99058.05;1791487;80;21644;-73
2021/01/08 10:48:43;;;;;;;20.32;10.85;;;;;;;1.23;78.68;99061.56;1811578;79;22266;-72
2021/01/08 10:51:11;;;;;;;19.20;11.30;;;;;;;1.19;79.49;99057.22;1805621;79;20943;-71
2021/01/08 10:53:38;;;;;;;22.67;12.63;;;;;;;1.16;80.93;99062.34;1808273;78;20983;-73
2021/01/08 10:56:06;;;;;;;19.48;10.88;;;;;;;1.13;80.97;99062.38;1783456;79;20954;-73
2021/01/08 10:58:34;;;;;;;23.00;12.63;;;;;;;1.11;81.49;99065.88;1811757;79;21173;-73
2021/01/08 11:01:03;;;;;;;25.08;12.65;;;;;;;1.08;81.59;99064.24;1811692;79;21190;-74
2021/01/08 11:03:31;;;;;;;19.82;11.90;;;;;;;1.04;82.17;99067.20;1811672;79;20978;-73
2021/01/08 11:05:59;;;;;;;24.50;13.05;;;;;;;1.00;82.62;99062.86;1785732;79;21058;-74
2021/01/08 11:08:27;;;;;;;21.30;12.10;;;;;;;0.96;82.87;99072.05;1742272;81;21074;-72
2021/01/08 11:10:55;;;;;;;29.27;15.03;;;;;;;0.94;83.07;99066.62;1780170;79;21654;-71
2021/01/08 11:13:23;;;;;;;25.65;13.90;;;;;;;0.92;83.44;99069.59;1742688;81;21674;-71
2021/01/08 11:15:52;;;;;;;23.22;12.93;;;;;;;0.88;83.45;99082.55;1781453;79;21023;-71
2021/01/08 11:18:22;;;;;;;27.22;14.85;;;;;;;0.85;83.69;99079.02;1778612;80;20952;-72
2021/01/08 11:20:54;;;;;;;21.62;12.35;;;;;;;0.83;84.14;99078.47;1778671;80;21091;-74
2021/01/08 11:23:24;;;;;;;25.52;13.70;;;;;;;0.81;83.98;99079.27;1778773;80;21594;-72
2021/01/08 11:25:52;;;;;;;27.13;13.85;;;;;;;0.75;84.05;99075.73;1778684;80;21273;-78
2021/01/08 11:28:20;;;;;;;23.77;13.10;;;;;;;0.73;84.53;99077.88;1778639;80;20956;-71
2021/01/08 11:30:52;;;;;;;24.23;14.80;;;;;;;0.73;84.60;99077.06;1778514;80;21126;-74
2021/01/08 11:33:20;;;;;;;28.95;16.35;;;;;;;0.72;85.36;99076.79;1778618;79;21079;-76
2021/01/08 11:35:50;;;;;;;25.97;14.10;;;;;;;0.76;85.34;99077.89;1787640;79;21158;-78
2021/01/08 11:38:19;;;;;;;23.12;13.20;;;;;;;0.78;85.32;99078.44;1778566;80;21378;-79
2021/01/08 11:40:47;;;;;;;25.45;13.53;;;;;;;0.75;84.84;99076.27;1759930;81;21154;-83
2021/01/08 11:43:16;;;;;;;27.42;13.55;;;;;;;0.72;84.81;99078.95;1778663;80;21105;-79
2021/01/08 11:45:45;;;;;;;24.37;12.68;;;;;;;0.74;84.83;99084.09;1747711;82;21472;-78
2021/01/08 11:48:13;;;;;;;22.48;12.73;;;;;;;0.72;85.27;99084.36;1778680;80;21057;-82
2021/01/08 11:50:41;;;;;;;20.85;11.75;;;;;;;0.72;85.10;99087.59;1747872;80;21445;-75